Time;durP1;ratioP1;P1;durP2;ratioP2;P2;SDS_P1;SDS_P2;PMS_P1;PMS_P2;Temp;Humidity;BMP_temperature;BMP_pressure;BME280_temperature;BME280_humidity;BME280_pressure;Samples;Min_cycle;Max_cycle;Signal;HPM_P1;HPM_P2
2022/11/30 00:04:49;;;;;;;5.70;4.03;;;15.90;73.10;;;;;;10365142;28;20516;-54
2022/11/30 00:09:50;;;;;;;5.40;4.10;;;15.90;73.20;;;;;;10377227;28;20079;-53
2022/11/30 00:14:51;;;;;;;5.07;4.45;;;15.80;73.20;;;;;;10364920;28;20057;-53
2022/11/30 00:19:52;;;;;;;6.75;5.10;;;15.90;73.20;;;;;;10364553;28;20093;-53
2022/11/30 00:24:52;;;;;;;6.30;3.60;;;15.90;73.10;;;;;;10378090;28;20041;-52
2022/11/30 00:29:53;;;;;;;6.28;4.72;;;15.90;73.10;;;;;;10377161;28;20120;-52
2022/11/30 00:34:54;;;;;;;5.88;4.60;;;15.80;73.10;;;;;;10340354;28;20145;-51
2022/11/30 00:39:54;;;;;;;4.30;3.50;;;15.80;73.00;;;;;;10293047;28;20043;-50
2022/11/30 00:44:55;;;;;;;5.10;3.83;;;15.90;73.40;;;;;;10283838;28;20023;-50
2022/11/30 00:49:56;;;;;;;4.65;3.88;;;15.90;72.80;;;;;;10283152;28;20066;-52
2022/11/30 00:54:56;;;;;;;5.40;3.95;;;15.90;72.80;;;;;;10315607;28;20468;-51
2022/11/30 00:59:57;;;;;;;3.63;2.92;;;15.80;72.90;;;;;;10297792;28;20458;-53
2022/11/30 01:04:58;;;;;;;6.05;3.95;;;15.90;72.80;;;;;;10287981;28;20053;-53
2022/11/30 01:09:58;;;;;;;4.78;3.33;;;15.90;72.80;;;;;;10309816;28;20118;-52
2022/11/30 01:14:59;;;;;;;4.90;3.85;;;15.80;72.80;;;;;;10279845;28;20145;-53
2022/11/30 01:20:00;;;;;;;4.65;3.25;;;15.80;72.90;;;;;;10289888;28;20102;-52
2022/11/30 01:25:01;;;;;;;4.38;3.28;;;15.80;72.80;;;;;;10313748;28;20121;-53
2022/11/30 01:30:02;;;;;;;5.70;3.60;;;15.80;72.70;;;;;;10328020;28;20023;-52
2022/11/30 01:35:03;;;;;;;4.70;3.78;;;15.80;72.70;;;;;;10294674;28;20046;-51
2022/11/30 01:40:04;;;;;;;5.78;3.97;;;15.80;72.80;;;;;;10329528;28;20370;-52
2022/11/30 01:45:09;;;;;;;5.38;3.65;;;15.80;72.80;;;;;;10319592;28;20034;-51
2022/11/30 01:50:23;;;;;;;6.03;3.80;;;15.80;72.60;;;;;;10287513;28;20030;-53
2022/11/30 01:55:33;;;;;;;4.43;3.50;;;15.90;72.50;;;;;;10283810;28;20034;-54
2022/11/30 02:00:34;;;;;;;4.88;3.60;;;15.90;72.40;;;;;;10308512;28;20031;-52
2022/11/30 02:05:38;;;;;;;4.65;3.63;;;15.90;72.10;;;;;;10271080;28;20522;-53
2022/11/30 02:10:43;;;;;;;5.00;3.53;;;15.90;72.10;;;;;;10284843;28;20057;-54
2022/11/30 02:16:08;;;;;;;5.88;4.32;;;15.90;72.30;;;;;;10264759;28;20034;-53
2022/11/30 02:21:45;;;;;;;4.60;3.58;;;15.90;72.40;;;;;;10286449;28;20030;-52
2022/11/30 02:27:22;;;;;;;5.57;3.33;;;15.80;72.30;;;;;;10293480;28;20031;-53
2022/11/30 02:32:32;;;;;;;5.28;3.80;;;15.90;72.30;;;;;;10310828;28;20559;-53
2022/11/30 02:37:34;;;;;;;4.85;3.55;;;15.90;72.20;;;;;;10310399;28;20400;-53
2022/11/30 02:42:35;;;;;;;5.97;3.78;;;15.90;72.30;;;;;;10295619;28;20126;-53
2022/11/30 02:47:53;;;;;;;4.32;3.30;;;15.80;72.30;;;;;;10269416;28;20090;-53
2022/11/30 02:52:54;;;;;;;5.85;3.78;;;15.80;72.20;;;;;;10274899;28;20027;-53
2022/11/30 02:57:55;;;;;;;5.05;3.50;;;15.80;72.10;;;;;;10281703;28;20049;-53
2022/11/30 03:02:55;;;;;;;4.97;3.35;;;15.90;72.10;;;;;;10256126;28;20533;-53
2022/11/30 03:07:56;;;;;;;6.90;3.47;;;15.90;72.00;;;;;;10268791;28;20027;-53
2022/11/30 03:12:58;;;;;;;4.20;3.00;;;15.90;72.00;;;;;;10276570;28;20058;-54
2022/11/30 03:18:03;;;;;;;4.28;3.08;;;15.90;72.00;;;;;;10268380;28;20039;-54
2022/11/30 03:23:04;;;;;;;4.60;3.03;;;15.90;71.80;;;;;;10285240;28;20073;-53
2022/11/30 03:28:04;;;;;;;4.93;3.35;;;15.90;71.80;;;;;;10293130;28;20109;-53
2022/11/30 03:33:05;;;;;;;4.25;2.97;;;15.90;71.80;;;;;;10283782;28;20053;-51
2022/11/30 03:38:06;;;;;;;7.00;2.97;;;15.90;71.70;;;;;;10283605;28;20126;-52
2022/11/30 03:43:06;;;;;;;4.43;3.10;;;15.90;72.30;;;;;;10298034;28;20096;-53
2022/11/30 03:48:07;;;;;;;5.88;3.55;;;15.90;71.70;;;;;;10284665;28;20378;-52
2022/11/30 03:53:08;;;;;;;4.70;3.00;;;15.90;71.80;;;;;;10284383;28;20498;-52
2022/11/30 03:58:09;;;;;;;5.05;3.13;;;15.90;71.60;;;;;;10284177;28;20078;-53
2022/11/30 04:03:10;;;;;;;5.78;3.15;;;15.90;71.60;;;;;;10289356;28;20021;-53
2022/11/30 04:08:11;;;;;;;3.80;2.60;;;15.90;71.70;;;;;;10283787;28;20019;-53
2022/11/30 04:13:11;;;;;;;3.45;2.53;;;15.90;71.70;;;;;;10301172;28;20121;-52
2022/11/30 04:18:13;;;;;;;4.05;2.60;;;15.90;71.50;;;;;;10283731;28;20162;-52
2022/11/30 04:23:14;;;;;;;3.90;2.85;;;15.90;71.50;;;;;;10266248;28;20023;-54
2022/11/30 04:28:16;;;;;;;4.35;2.88;;;15.90;71.60;;;;;;10322698;28;20434;-51
2022/11/30 04:33:16;;;;;;;5.13;2.92;;;15.90;71.50;;;;;;10305786;28;20038;-52
2022/11/30 04:38:17;;;;;;;6.07;2.92;;;16.00;71.40;;;;;;10320623;28;20034;-53
2022/11/30 04:43:18;;;;;;;4.35;3.10;;;15.90;71.50;;;;;;10289230;28;20057;-53
2022/11/30 04:48:19;;;;;;;4.15;2.75;;;15.90;71.50;;;;;;10301443;28;20030;-53
2022/11/30 04:53:20;;;;;;;3.92;2.60;;;15.90;71.40;;;;;;10318967;28;20023;-53
2022/11/30 04:58:20;;;;;;;4.03;2.75;;;15.90;71.30;;;;;;10320420;28;20615;-53
2022/11/30 05:03:21;;;;;;;3.90;2.67;;;15.90;71.50;;;;;;10299765;28;20030;-50
2022/11/30 05:08:22;;;;;;;4.40;2.90;;;15.90;71.30;;;;;;10289002;28;20590;-53
2022/11/30 05:13:25;;;;;;;5.03;3.00;;;15.90;71.20;;;;;;10306701;28;20054;-50
2022/11/30 05:18:25;;;;;;;4.38;2.97;;;15.90;71.40;;;;;;10315864;28;20039;-53
2022/11/30 05:23:26;;;;;;;4.82;3.33;;;15.90;71.30;;;;;;10304555;28;20593;-52
2022/11/30 05:28:27;;;;;;;5.10;3.25;;;15.90;71.00;;;;;;10314552;28;20027;-51
2022/11/30 05:33:27;;;;;;;4.45;3.13;;;16.00;70.70;;;;;;10301137;28;20035;-50
2022/11/30 05:38:28;;;;;;;6.18;3.45;;;15.90;70.80;;;;;;10314277;28;20117;-49
2022/11/30 05:43:29;;;;;;;5.60;3.17;;;15.90;70.90;;;;;;10304078;28;20031;-53
2022/11/30 05:48:30;;;;;;;4.05;2.72;;;15.90;71.00;;;;;;10310199;28;20474;-52
2022/11/30 05:53:31;;;;;;;4.68;3.00;;;15.80;70.90;;;;;;10270643;28;20165;-51
2022/11/30 05:58:32;;;;;;;8.77;2.80;;;15.90;71.30;;;;;;10312358;28;20678;-53
2022/11/30 06:03:34;;;;;;;7.85;3.22;;;16.00;71.50;;;;;;10311450;28;20030;-56
2022/11/30 06:08:35;;;;;;;3.90;2.30;;;16.10;71.80;;;;;;10273517;28;20022;-53
2022/11/30 06:13:36;;;;;;;5.22;3.00;;;16.10;72.80;;;;;;10279067;28;20071;-53
2022/11/30 06:18:37;;;;;;;9.38;3.55;;;16.20;72.90;;;;;;10301265;28;20118;-52
2022/11/30 06:23:38;;;;;;;5.20;2.47;;;16.20;72.70;;;;;;10252902;28;20385;-53
2022/11/30 06:28:39;;;;;;;5.70;2.50;;;16.10;72.60;;;;;;10281453;28;20034;-55
2022/11/30 06:33:40;;;;;;;8.13;2.75;;;16.10;72.60;;;;;;10270199;28;20409;-52
2022/11/30 06:38:40;;;;;;;8.70;3.22;;;16.10;73.20;;;;;;10297870;28;20065;-52
2022/11/30 06:43:41;;;;;;;6.22;3.17;;;16.10;72.90;;;;;;10311217;28;20251;-54
2022/11/30 06:48:42;;;;;;;4.70;2.75;;;16.00;72.90;;;;;;10313471;28;20493;-55
2022/11/30 06:53:43;;;;;;;17.33;3.70;;;15.80;73.40;;;;;;10285839;28;20077;-53
2022/11/30 06:58:44;;;;;;;16.90;3.50;;;15.80;75.00;;;;;;10273404;28;20031;-55
2022/11/30 07:03:44;;;;;;;7.75;3.58;;;15.70;75.00;;;;;;10297210;28;20097;-54
2022/11/30 07:08:45;;;;;;;15.05;3.55;;;15.70;73.80;;;;;;10307749;28;20063;-57
2022/11/30 07:13:46;;;;;;;13.68;3.95;;;15.70;73.60;;;;;;10270157;28;20049;-54
2022/11/30 07:18:47;;;;;;;8.05;3.63;;;15.80;73.60;;;;;;10298557;28;20141;-55
2022/11/30 07:29:06;;;;;;;6.30;3.15;;;15.60;73.40;;;;;;10285128;28;20034;-54
2022/11/30 07:34:08;;;;;;;9.65;3.72;;;15.60;72.80;;;;;;10321884;28;20042;-53
2022/11/30 07:39:10;;;;;;;15.07;3.72;;;15.50;72.70;;;;;;10302902;28;20030;-56
2022/11/30 07:44:11;;;;;;;6.88;3.55;;;15.60;72.00;;;;;;10287208;28;20027;-55
2022/11/30 07:49:12;;;;;;;10.82;3.67;;;15.60;72.10;;;;;;10301450;28;20046;-56
2022/11/30 07:54:12;;;;;;;8.82;3.30;;;15.60;72.20;;;;;;10277500;28;20113;-57
2022/11/30 07:59:13;;;;;;;7.90;3.30;;;15.70;72.20;;;;;;10253930;28;20042;-58
2022/11/30 08:04:14;;;;;;;6.50;2.35;;;15.80;72.40;;;;;;10311735;28;20023;-56
2022/11/30 08:09:14;;;;;;;9.70;2.83;;;15.80;72.60;;;;;;10290178;28;20047;-55
2022/11/30 08:14:15;;;;;;;6.43;2.20;;;15.80;72.40;;;;;;10256525;28;20458;-56
2022/11/30 08:19:16;;;;;;;7.30;2.40;;;15.90;72.30;;;;;;10314407;28;20541;-56
2022/11/30 08:24:17;;;;;;;7.63;2.40;;;15.90;72.30;;;;;;10280957;28;20026;-56
2022/11/30 08:29:18;;;;;;;5.22;3.30;;;15.80;72.10;;;;;;10295659;28;20030;-56
2022/11/30 08:34:18;;;;;;;6.18;2.50;;;15.80;71.80;;;;;;10286634;28;1032119;-55
2022/11/30 08:39:19;;;;;;;5.13;2.65;;;15.80;71.70;;;;;;10297626;28;20173;-56
2022/11/30 08:44:20;;;;;;;5.90;2.90;;;15.80;71.50;;;;;;10316096;28;20030;-56
2022/11/30 08:49:22;;;;;;;10.07;2.58;;;15.80;71.60;;;;;;10296131;28;20177;-56
2022/11/30 08:54:22;;;;;;;7.47;3.25;;;15.80;71.30;;;;;;10269184;28;20023;-52
2022/11/30 08:59:23;;;;;;;9.93;3.47;;;15.90;71.10;;;;;;10269120;28;20050;-54
2022/11/30 09:04:24;;;;;;;7.65;2.58;;;15.90;71.10;;;;;;10269784;28;20027;-54
2022/11/30 09:09:25;;;;;;;8.88;3.08;;;15.90;71.40;;;;;;10294488;28;20041;-55
2022/11/30 09:14:26;;;;;;;19.02;3.67;;;15.80;71.60;;;;;;10278969;28;20031;-57
2022/11/30 09:19:27;;;;;;;13.02;3.70;;;15.80;72.30;;;;;;10266365;28;20043;-55
2022/11/30 09:24:28;;;;;;;9.80;3.38;;;15.80;71.80;;;;;;10290959;28;20019;-56
2022/11/30 09:29:28;;;;;;;11.52;3.03;;;15.80;72.10;;;;;;10282841;28;20023;-55
2022/11/30 09:34:29;;;;;;;13.82;4.25;;;15.70;72.00;;;;;;10285471;28;20145;-55
2022/11/30 09:39:29;;;;;;;12.18;3.78;;;15.70;71.90;;;;;;10284682;28;20067;-53
2022/11/30 09:45:00;;;;;;;23.20;5.57;;;15.70;72.30;;;;;;10308563;28;20043;-56
2022/11/30 09:50:15;;;;;;;26.33;5.07;;;15.70;72.10;;;;;;10298268;28;20462;-56
2022/11/30 09:55:28;;;;;;;13.70;3.42;;;15.70;72.00;;;;;;10281044;28;20058;-54
2022/11/30 10:00:29;;;;;;;17.35;5.10;;;15.70;72.30;;;;;;10274083;28;20147;-56
2022/11/30 10:06:04;;;;;;;16.70;4.25;;;15.60;72.00;;;;;;10279976;28;20141;-56
2022/11/30 10:11:30;;;;;;;10.68;3.78;;;15.70;72.30;;;;;;10303124;28;20109;-54
2022/11/30 10:16:50;;;;;;;12.82;3.83;;;15.60;72.60;;;;;;10291793;28;20053;-53
2022/11/30 10:22:29;;;;;;;14.70;4.93;;;15.60;73.20;;;;;;10296367;28;20058;-54
2022/11/30 10:27:48;;;;;;;10.70;3.08;;;15.50;73.10;;;;;;10269095;28;20019;-55
2022/11/30 10:32:55;;;;;;;8.77;3.17;;;15.60;73.20;;;;;;10304233;28;20120;-55
2022/11/30 10:37:58;;;;;;;5.15;2.97;;;15.50;73.90;;;;;;10300789;28;20039;-56
2022/11/30 10:43:40;;;;;;;7.53;3.75;;;15.50;73.50;;;;;;10307911;28;20093;-56
2022/11/30 10:48:53;;;;;;;6.88;3.55;;;15.50;73.40;;;;;;10304462;28;20030;-56
2022/11/30 10:53:54;;;;;;;9.05;3.80;;;15.60;73.50;;;;;;10270333;28;20027;-56
2022/11/30 10:59:16;;;;;;;8.85;3.08;;;15.60;73.30;;;;;;10288555;28;20034;-56
2022/11/30 11:04:24;;;;;;;8.00;3.35;;;15.70;73.40;;;;;;10324246;28;20115;-54
2022/11/30 11:09:47;;;;;;;5.45;3.50;;;15.60;73.40;;;;;;10323531;28;20030;-56
2022/11/30 11:14:48;;;;;;;7.80;2.95;;;15.70;73.40;;;;;;10271229;28;20637;-54
2022/11/30 11:19:50;;;;;;;9.45;3.40;;;15.70;73.50;;;;;;10274067;28;20093;-55
2022/11/30 11:25:20;;;;;;;5.07;3.17;;;15.70;73.60;;;;;;10298640;28;20526;-55
2022/11/30 11:30:23;;;;;;;7.07;3.53;;;15.80;73.30;;;;;;10287744;28;20023;-55
2022/11/30 11:35:41;;;;;;;5.93;3.15;;;15.80;73.00;;;;;;10317342;28;20050;-56
2022/11/30 11:41:00;;;;;;;5.40;3.42;;;15.80;73.00;;;;;;10297694;28;20029;-56
2022/11/30 11:46:11;;;;;;;5.60;3.10;;;15.80;72.80;;;;;;10308861;28;20358;-54
2022/11/30 11:51:14;;;;;;;4.28;2.58;;;15.90;73.00;;;;;;10301841;28;20562;-55
2022/11/30 11:56:33;;;;;;;8.48;3.03;;;15.90;72.70;;;;;;10275287;28;20022;-55
2022/11/30 12:02:00;;;;;;;4.57;2.97;;;15.90;72.70;;;;;;10293685;28;20030;-56
2022/11/30 12:07:20;;;;;;;3.45;2.22;;;15.90;72.70;;;;;;10264740;28;20062;-52
2022/11/30 12:12:21;;;;;;;5.65;2.92;;;15.90;72.40;;;;;;10276988;28;20030;-56
2022/11/30 12:17:37;;;;;;;3.58;2.72;;;15.80;72.60;;;;;;10306637;28;20041;-53
2022/11/30 12:23:14;;;;;;;5.00;2.72;;;15.80;72.60;;;;;;10280354;28;20054;-56
2022/11/30 12:28:27;;;;;;;10.30;4.13;;;15.70;72.70;;;;;;10291958;28;20028;-55
2022/11/30 12:34:06;;;;;;;10.98;3.78;;;15.90;73.10;;;;;;10245459;28;20498;-51
2022/11/30 12:39:49;;;;;;;6.13;3.10;;;15.90;74.10;;;;;;10277670;28;20046;-55
2022/11/30 12:45:18;;;;;;;7.43;3.70;;;15.80;72.90;;;;;;10272141;28;20089;-54
2022/11/30 12:51:06;;;;;;;6.72;3.80;;;15.80;74.40;;;;;;10298047;28;20050;-55
2022/11/30 12:56:35;;;;;;;8.80;3.45;;;15.80;74.40;;;;;;10302460;28;20101;-55
2022/11/30 13:02:06;;;;;;;4.43;3.20;;;15.70;74.10;;;;;;10275233;28;20081;-54
2022/11/30 13:07:28;;;;;;;7.10;3.85;;;15.60;73.60;;;;;;10274899;28;20020;-54
2022/11/30 13:12:36;;;;;;;5.05;2.78;;;15.60;73.80;;;;;;10306303;28;20029;-55
2022/11/30 13:17:37;;;;;;;8.02;3.80;;;15.50;73.90;;;;;;10297922;28;20042;-55
2022/11/30 13:23:03;;;;;;;21.10;5.85;;;15.50;74.00;;;;;;10296481;28;20029;-58
2022/11/30 13:28:19;;;;;;;15.10;5.03;;;15.50;73.70;;;;;;10275577;28;20657;-53
2022/11/30 13:33:56;;;;;;;13.32;4.75;;;15.50;73.90;;;;;;10310230;28;20050;-55
2022/11/30 13:39:22;;;;;;;15.13;5.18;;;15.60;73.30;;;;;;10291630;28;20030;-57
2022/11/30 13:44:39;;;;;;;17.15;4.75;;;15.70;73.40;;;;;;10312831;28;20061;-58
2022/11/30 13:49:40;;;;;;;18.17;5.43;;;15.70;73.80;;;;;;10258262;28;20046;-56
2022/11/30 13:54:48;;;;;;;15.60;5.60;;;15.70;73.90;;;;;;10289750;28;20588;-56
2022/11/30 13:59:57;;;;;;;14.50;4.78;;;15.80;73.50;;;;;;10271135;28;20038;-56
2022/11/30 14:05:16;;;;;;;16.27;5.20;;;15.80;73.80;;;;;;10328736;28;20023;-57
2022/11/30 14:10:41;;;;;;;15.63;6.53;;;15.80;73.70;;;;;;10314614;28;20118;-56
2022/11/30 14:15:41;;;;;;;14.73;6.05;;;15.80;73.50;;;;;;10276879;28;20367;-54
2022/11/30 14:21:20;;;;;;;12.98;6.05;;;15.80;73.80;;;;;;10293303;28;20035;-57
2022/11/30 14:26:34;;;;;;;33.75;7.95;;;15.70;73.80;;;;;;10249727;28;20668;-56
2022/11/30 14:32:00;;;;;;;19.85;5.50;;;15.60;74.00;;;;;;10300697;28;20363;-55
2022/11/30 14:37:19;;;;;;;19.08;6.35;;;15.60;73.80;;;;;;10323995;28;20054;-55
2022/11/30 14:42:27;;;;;;;41.57;7.63;;;15.60;73.80;;;;;;10267702;28;20026;-55
2022/11/30 14:47:31;;;;;;;17.20;6.05;;;15.50;74.70;;;;;;10275243;28;20035;-56
2022/11/30 14:53:00;;;;;;;38.22;8.20;;;15.60;74.60;;;;;;10317654;28;20662;-56
2022/11/30 14:58:45;;;;;;;26.13;7.32;;;15.60;74.50;;;;;;10327175;28;20030;-55
2022/11/30 15:03:48;;;;;;;44.45;8.73;;;15.60;74.30;;;;;;10286638;28;20035;-53
2022/11/30 15:08:55;;;;;;;35.00;7.80;;;15.60;74.40;;;;;;10272830;28;20702;-55
2022/11/30 15:14:07;;;;;;;29.33;6.82;;;15.50;74.50;;;;;;10301255;28;20023;-56
2022/11/30 15:19:30;;;;;;;22.52;7.68;;;15.60;74.10;;;;;;10272693;28;20038;-54
2022/11/30 15:24:31;;;;;;;23.00;7.20;;;15.60;73.80;;;;;;10282977;28;20036;-57
2022/11/30 15:29:37;;;;;;;33.97;7.40;;;15.60;73.90;;;;;;10269914;28;20388;-57
2022/11/30 15:34:46;;;;;;;24.33;6.90;;;15.60;73.70;;;;;;10260659;28;20057;-54
2022/11/30 15:39:51;;;;;;;26.47;7.43;;;15.50;73.70;;;;;;10313228;28;20084;-57
2022/11/30 15:45:07;;;;;;;24.50;6.72;;;15.50;73.70;;;;;;10269000;28;20025;-52
2022/11/30 15:50:28;;;;;;;24.63;8.88;;;15.60;73.40;;;;;;10275406;28;20034;-54
2022/11/30 15:56:07;;;;;;;15.82;6.32;;;15.60;73.30;;;;;;10298514;28;20042;-53
2022/11/30 16:01:19;;;;;;;14.68;6.57;;;15.60;73.90;;;;;;10288452;28;20114;-55
2022/11/30 16:06:30;;;;;;;18.45;6.35;;;15.60;73.20;;;;;;10303023;28;20049;-55
2022/11/30 16:11:33;;;;;;;16.65;7.47;;;15.70;72.80;;;;;;10277710;28;20054;-56
2022/11/30 16:16:34;;;;;;;11.43;5.85;;;15.70;72.60;;;;;;10300401;28;20031;-55
2022/11/30 16:21:34;;;;;;;14.48;6.95;;;15.70;72.50;;;;;;10295187;28;20644;-54
2022/11/30 16:26:35;;;;;;;10.90;4.85;;;15.70;72.40;;;;;;10283784;28;20058;-54
2022/11/30 16:31:37;;;;;;;11.93;6.72;;;15.70;72.20;;;;;;10314843;28;20089;-55
2022/11/30 16:36:38;;;;;;;21.80;6.03;;;15.80;72.10;;;;;;10305618;28;20133;-53
2022/11/30 16:41:39;;;;;;;14.35;6.40;;;15.80;72.00;;;;;;10308383;28;20038;-54
2022/11/30 16:46:39;;;;;;;10.55;5.53;;;15.80;71.80;;;;;;10304808;28;20031;-55
2022/11/30 16:51:40;;;;;;;21.58;6.68;;;15.80;72.00;;;;;;10305847;28;20030;-51
2022/11/30 16:56:42;;;;;;;14.63;7.47;;;15.80;72.10;;;;;;10288689;28;20102;-54
2022/11/30 17:01:47;;;;;;;11.13;5.88;;;15.60;72.30;;;;;;10281012;28;20081;-56
2022/11/30 17:06:48;;;;;;;12.50;6.25;;;15.70;71.60;;;;;;10278777;28;20025;-57
2022/11/30 17:11:49;;;;;;;12.35;7.55;;;15.80;71.30;;;;;;10296483;28;20529;-56
2022/11/30 17:16:50;;;;;;;13.30;9.05;;;15.70;71.60;;;;;;10294435;28;20030;-55
2022/11/30 17:21:51;;;;;;;14.55;7.47;;;15.70;73.00;;;;;;10306530;28;20035;-56
2022/11/30 17:26:51;;;;;;;10.90;6.60;;;16.00;75.30;;;;;;10289554;28;20033;-55
2022/11/30 17:31:52;;;;;;;12.93;6.85;;;16.20;74.70;;;;;;10296086;28;20105;-53
2022/11/30 17:36:55;;;;;;;13.07;8.60;;;16.30;73.70;;;;;;10287659;28;20082;-56
2022/11/30 17:41:56;;;;;;;14.32;7.28;;;16.30;73.80;;;;;;10271277;28;20100;-56
2022/11/30 17:46:56;;;;;;;14.20;6.88;;;16.20;73.20;;;;;;10299470;28;20401;-54
2022/11/30 17:51:57;;;;;;;10.82;6.22;;;16.10;73.00;;;;;;10286630;28;20027;-56
2022/11/30 17:56:58;;;;;;;15.02;7.07;;;16.00;73.00;;;;;;10281488;28;20165;-56
2022/11/30 18:01:59;;;;;;;15.05;7.55;;;15.90;73.10;;;;;;10325455;28;20474;-56
2022/11/30 18:06:59;;;;;;;13.52;7.15;;;15.90;73.30;;;;;;10228104;28;20036;-54
2022/11/30 18:12:00;;;;;;;14.48;7.07;;;15.90;73.10;;;;;;10278918;28;20143;-52
2022/11/30 18:17:01;;;;;;;11.25;6.50;;;15.80;73.00;;;;;;10279688;28;20122;-51
2022/11/30 18:22:01;;;;;;;17.08;7.20;;;15.70;73.10;;;;;;10296198;28;20113;-51
2022/11/30 18:27:02;;;;;;;12.38;7.68;;;15.70;73.40;;;;;;10293059;28;20073;-53
2022/11/30 18:32:03;;;;;;;9.98;7.30;;;15.70;73.60;;;;;;10304474;28;20026;-53
2022/11/30 18:37:04;;;;;;;14.88;6.93;;;15.70;73.30;;;;;;10304478;28;20082;-53
2022/11/30 18:42:05;;;;;;;11.52;7.85;;;15.60;73.50;;;;;;10325247;28;20101;-52
2022/11/30 18:47:05;;;;;;;10.90;6.90;;;15.60;73.40;;;;;;10282823;28;20113;-52
2022/11/30 18:52:06;;;;;;;12.95;6.88;;;15.60;73.10;;;;;;10310007;28;20107;-53
2022/11/30 18:57:07;;;;;;;11.18;6.60;;;15.60;73.10;;;;;;10319973;28;20054;-54
2022/11/30 19:02:08;;;;;;;22.90;7.65;;;15.60;73.30;;;;;;10300979;28;20019;-52
2022/11/30 19:07:08;;;;;;;15.70;8.02;;;15.60;73.00;;;;;;10324256;28;20082;-53
2022/11/30 19:12:09;;;;;;;13.43;6.75;;;15.60;72.80;;;;;;10298832;28;20059;-52
2022/11/30 19:17:10;;;;;;;10.00;6.55;;;15.70;72.80;;;;;;10285820;28;20034;-53
2022/11/30 19:22:11;;;;;;;11.20;6.65;;;15.80;72.30;;;;;;10306964;28;20062;-52
2022/11/30 19:27:11;;;;;;;11.38;7.85;;;15.80;71.80;;;;;;10292382;28;20026;-52
2022/11/30 19:32:12;;;;;;;59.90;40.33;;;15.90;71.10;;;;;;10306452;28;20086;-52
2022/11/30 19:37:13;;;;;;;72.45;47.03;;;16.00;70.40;;;;;;10306346;28;20097;-53
2022/11/30 19:42:14;;;;;;;57.72;41.17;;;16.10;69.70;;;;;;10263773;28;20109;-52
2022/11/30 19:47:14;;;;;;;48.22;33.78;;;16.20;69.30;;;;;;10267712;28;20027;-51
2022/11/30 19:52:15;;;;;;;38.92;28.92;;;16.30;69.10;;;;;;10295820;28;20072;-52
2022/11/30 19:57:16;;;;;;;41.47;32.15;;;16.30;69.10;;;;;;10324913;28;20158;-54
2022/11/30 20:02:17;;;;;;;51.22;33.55;;;16.30;69.10;;;;;;10291883;28;21066;-48
2022/11/30 20:07:17;;;;;;;75.63;55.38;;;16.40;68.60;;;;;;10289853;28;20069;-53
2022/11/30 20:12:18;;;;;;;43.58;34.53;;;16.30;68.60;;;;;;10303904;28;20674;-51
2022/11/30 20:17:19;;;;;;;44.53;29.67;;;16.40;68.40;;;;;;10324200;28;20034;-54
2022/11/30 20:22:19;;;;;;;36.13;26.70;;;16.50;68.40;;;;;;10310490;28;20054;-51
2022/11/30 20:27:23;;;;;;;41.63;28.17;;;16.60;68.50;;;;;;10319812;28;20723;-53
2022/11/30 20:32:24;;;;;;;38.35;27.80;;;16.40;68.70;;;;;;10265075;28;20066;-52
2022/11/30 20:37:25;;;;;;;36.58;27.92;;;16.30;69.30;;;;;;10284076;28;20066;-52
2022/11/30 20:42:25;;;;;;;40.72;27.52;;;16.20;69.60;;;;;;10303852;28;20102;-53
2022/11/30 20:47:26;;;;;;;41.38;27.23;;;16.10;69.80;;;;;;10284163;28;20497;-53
2022/11/30 20:52:27;;;;;;;31.20;23.52;;;16.00;70.00;;;;;;10302921;28;20416;-54
2022/11/30 20:57:28;;;;;;;32.13;24.05;;;16.00;70.10;;;;;;10304777;28;20039;-54
2022/11/30 21:02:29;;;;;;;30.70;23.77;;;15.90;70.30;;;;;;10288262;28;20110;-55
2022/11/30 21:07:29;;;;;;;31.13;23.10;;;15.80;70.40;;;;;;10264561;28;20106;-53
2022/11/30 21:12:30;;;;;;;27.33;21.50;;;15.80;70.50;;;;;;10289392;28;20058;-53
2022/11/30 21:17:31;;;;;;;27.27;20.75;;;15.80;70.50;;;;;;10307044;28;20074;-54
2022/11/30 21:22:32;;;;;;;27.98;21.10;;;15.80;70.40;;;;;;10290981;28;20528;-55
2022/11/30 21:27:33;;;;;;;30.13;20.35;;;15.70;70.30;;;;;;10321936;28;20031;-52
2022/11/30 21:32:33;;;;;;;29.42;20.23;;;15.80;70.80;;;;;;10328360;28;20157;-54
2022/11/30 21:37:34;;;;;;;29.20;20.50;;;15.80;70.00;;;;;;10328954;28;20066;-54
2022/11/30 21:42:35;;;;;;;29.33;20.77;;;15.80;70.00;;;;;;10296501;28;20069;-54
2022/11/30 21:47:35;;;;;;;26.98;19.10;;;15.80;70.10;;;;;;10310318;28;20126;-54
2022/11/30 21:52:36;;;;;;;24.63;19.67;;;15.80;70.10;;;;;;10289408;28;20030;-51
2022/11/30 21:57:37;;;;;;;29.92;20.15;;;15.80;69.70;;;;;;10290937;28;20485;-53
2022/11/30 22:02:37;;;;;;;22.23;16.75;;;15.80;69.70;;;;;;10329504;28;20021;-51
2022/11/30 22:07:38;;;;;;;30.45;18.10;;;15.80;69.50;;;;;;10315413;28;20047;-52
2022/11/30 22:12:39;;;;;;;22.52;16.23;;;15.80;70.10;;;;;;10298463;28;20027;-50
2022/11/30 22:17:39;;;;;;;23.63;16.50;;;15.90;70.00;;;;;;10291870;28;20116;-52
2022/11/30 22:22:40;;;;;;;27.17;17.20;;;15.90;69.20;;;;;;10277168;28;20412;-53
2022/11/30 22:27:40;;;;;;;20.23;15.52;;;15.90;69.20;;;;;;10293956;28;20054;-54
2022/11/30 22:32:41;;;;;;;24.08;16.05;;;16.00;68.90;;;;;;10254433;28;20074;-54
2022/11/30 22:37:42;;;;;;;21.17;16.80;;;15.90;68.90;;;;;;10291464;28;20096;-54
2022/11/30 22:42:42;;;;;;;22.30;15.65;;;16.00;68.90;;;;;;10313741;28;20632;-54
2022/11/30 22:47:43;;;;;;;18.83;13.95;;;16.00;68.70;;;;;;10290504;28;20117;-52
2022/11/30 22:52:44;;;;;;;20.70;14.48;;;16.00;68.70;;;;;;10287406;28;20110;-53
2022/11/30 22:57:44;;;;;;;19.75;14.75;;;16.00;68.90;;;;;;10290570;28;20109;-52
2022/11/30 23:02:48;;;;;;;20.08;15.20;;;15.90;68.80;;;;;;10326862;28;20018;-53
2022/11/30 23:07:48;;;;;;;19.25;13.57;;;15.90;68.80;;;;;;10295504;28;20057;-54
2022/11/30 23:12:49;;;;;;;20.98;14.50;;;15.90;68.80;;;;;;10310902;28;20042;-52
2022/11/30 23:17:49;;;;;;;21.52;14.75;;;16.00;68.80;;;;;;10290508;28;20117;-54
2022/11/30 23:22:50;;;;;;;21.63;15.38;;;15.90;68.80;;;;;;10297664;28;20038;-54
2022/11/30 23:27:51;;;;;;;18.90;13.57;;;15.90;68.60;;;;;;10316917;28;20054;-54
2022/11/30 23:32:56;;;;;;;20.80;13.80;;;16.00;68.60;;;;;;10268465;28;20138;-54
2022/11/30 23:37:57;;;;;;;17.55;13.55;;;16.10;68.30;;;;;;10293957;28;20030;-52
2022/11/30 23:42:57;;;;;;;19.58;13.90;;;16.00;68.20;;;;;;10325168;28;20101;-54
2022/11/30 23:47:58;;;;;;;17.65;13.18;;;15.90;68.30;;;;;;10316334;28;20612;-53
2022/11/30 23:52:58;;;;;;;14.73;12.10;;;16.00;68.40;;;;;;10284807;28;20062;-50
2022/11/30 23:57:59;;;;;;;18.80;13.60;;;16.00;68.30;;;;;;10292561;28;20132;-52
